createdAt,value
2017-11-29T00:00:30.405Z,10.68
2017-11-29T00:02:59.288Z,13.20
2017-11-29T00:05:28.392Z,11.65
2017-11-29T00:07:57.445Z,15.73
2017-11-29T00:10:27.570Z,16.00
2017-11-29T00:12:56.561Z,13.70
2017-11-29T00:15:25.852Z,14.63
2017-11-29T00:17:55.776Z,13.73
2017-11-29T00:20:24.973Z,13.50
2017-11-29T00:22:54.066Z,14.43
2017-11-29T00:25:24.909Z,13.82
2017-11-29T00:27:53.997Z,14.35
2017-11-29T00:30:23.820Z,14.32
2017-11-29T00:32:53.625Z,15.70
2017-11-29T00:35:23.610Z,14.55
2017-11-29T00:37:52.942Z,13.73
2017-11-29T00:40:23.888Z,13.65
2017-11-29T00:42:53.063Z,14.65
2017-11-29T00:45:22.842Z,13.88
2017-11-29T00:47:51.887Z,14.38
2017-11-29T00:50:21.223Z,13.07
2017-11-29T00:52:50.271Z,14.35
2017-11-29T00:55:22.293Z,14.77
2017-11-29T00:57:51.350Z,15.20
2017-11-29T01:00:20.591Z,15.98
2017-11-29T01:02:49.778Z,15.05
2017-11-29T01:05:20.063Z,18.77
2017-11-29T01:07:49.056Z,15.45
2017-11-29T01:10:18.053Z,16.00
2017-11-29T01:12:49.552Z,16.80
2017-11-29T01:17:52.300Z,16.23
2017-11-29T01:20:21.705Z,17.20
2017-11-29T01:22:51.184Z,17.92
2017-11-29T01:25:20.301Z,18.25
2017-11-29T01:27:50.361Z,17.02
2017-11-29T01:30:19.344Z,17.70
2017-11-29T01:32:48.203Z,15.65
2017-11-29T01:35:17.194Z,16.40
2017-11-29T01:37:48.804Z,16.73
2017-11-29T01:40:18.644Z,20.12
2017-11-29T01:42:47.824Z,21.60
2017-11-29T01:45:16.999Z,18.50
2017-11-29T01:47:46.149Z,19.48
2017-11-29T01:50:15.420Z,21.90
2017-11-29T01:52:47.334Z,21.83
2017-11-29T01:55:16.325Z,24.83
2017-11-29T01:57:46.601Z,24.05
2017-11-29T02:02:49.724Z,22.50
2017-11-29T02:05:19.657Z,23.20
2017-11-29T02:07:49.366Z,21.75
2017-11-29T02:10:18.463Z,22.85
2017-11-29T02:12:48.735Z,21.58
2017-11-29T02:15:18.603Z,23.67
2017-11-29T02:17:47.802Z,23.20
2017-11-29T02:20:16.995Z,21.90
2017-11-29T02:22:46.597Z,21.95
2017-11-29T02:25:17.281Z,21.42
2017-11-29T02:27:49.142Z,20.80
2017-11-29T02:30:19.526Z,24.50
2017-11-29T02:32:48.670Z,22.45
2017-11-29T02:37:52.339Z,21.92
2017-11-29T02:40:33.315Z,24.52
2017-11-29T02:43:04.250Z,22.27
2017-11-29T02:45:33.762Z,21.17
2017-11-29T02:48:02.957Z,20.27
2017-11-29T02:50:34.814Z,19.35
2017-11-29T02:53:04.934Z,19.83
2017-11-29T02:55:35.858Z,19.58
2017-11-29T02:58:04.980Z,20.27
2017-11-29T03:00:35.024Z,21.55
2017-11-29T03:03:04.296Z,17.90
2017-11-29T03:05:34.064Z,20.67
2017-11-29T03:08:03.910Z,19.40
2017-11-29T03:10:35.677Z,19.85
2017-11-29T03:13:05.486Z,20.02
2017-11-29T03:15:34.477Z,18.58
2017-11-29T03:20:38.813Z,19.45
2017-11-29T03:23:09.757Z,18.15
2017-11-29T03:25:38.744Z,17.67
2017-11-29T03:28:08.144Z,18.85
2017-11-29T03:30:37.141Z,18.40
2017-11-29T03:33:06.125Z,19.50
2017-11-29T03:35:36.149Z,18.35
2017-11-29T03:38:05.855Z,19.20
2017-11-29T03:40:37.712Z,19.00
2017-11-29T03:43:07.476Z,19.15
2017-11-29T03:45:36.426Z,20.37
2017-11-29T03:48:09.105Z,22.50
2017-11-29T03:50:38.044Z,19.70
2017-11-29T03:53:07.027Z,20.27
2017-11-29T03:55:36.136Z,20.45
2017-11-29T03:58:05.286Z,21.17
2017-11-29T04:00:34.229Z,21.67
2017-11-29T04:03:06.519Z,20.30
2017-11-29T04:05:35.638Z,21.50
2017-11-29T04:08:04.847Z,27.35
2017-11-29T04:10:34.287Z,33.28
2017-11-29T04:13:03.277Z,38.35
2017-11-29T04:15:33.203Z,41.30
2017-11-29T04:18:04.094Z,37.65
2017-11-29T04:20:33.187Z,36.03
2017-11-29T04:23:02.908Z,33.22
2017-11-29T04:25:35.574Z,30.62
2017-11-29T04:28:04.874Z,32.47
2017-11-29T04:30:33.971Z,27.15
2017-11-29T04:33:06.240Z,23.48
2017-11-29T04:35:35.333Z,23.62
2017-11-29T04:38:05.336Z,22.23
2017-11-29T04:40:36.103Z,22.45
2017-11-29T04:43:05.182Z,19.55
2017-11-29T04:45:34.284Z,18.55
2017-11-29T04:48:03.246Z,18.10
2017-11-29T04:50:32.371Z,17.42
2017-11-29T04:53:01.466Z,18.45
2017-11-29T04:55:30.762Z,16.00
2017-11-29T04:58:00.791Z,17.15
2017-11-29T05:00:30.082Z,16.45
2017-11-29T05:03:01.742Z,17.23
2017-11-29T05:05:31.655Z,15.40
2017-11-29T05:08:00.627Z,14.90
2017-11-29T05:10:30.154Z,13.30
2017-11-29T05:12:59.906Z,11.77
2017-11-29T05:15:31.929Z,11.75
2017-11-29T05:18:01.126Z,12.68
2017-11-29T05:20:30.428Z,12.05
2017-11-29T05:22:59.861Z,11.07
2017-11-29T05:25:29.090Z,10.07
2017-11-29T05:27:59.040Z,10.60
2017-11-29T05:30:29.790Z,9.98
2017-11-29T05:32:59.385Z,10.80
2017-11-29T05:35:29.421Z,10.65
2017-11-29T05:37:58.604Z,12.02
2017-11-29T05:40:27.844Z,9.90
2017-11-29T05:42:56.991Z,10.13
2017-11-29T05:45:28.645Z,11.57
2017-11-29T05:47:57.750Z,10.57
2017-11-29T05:50:26.888Z,11.10
2017-11-29T05:52:56.149Z,10.98
2017-11-29T05:55:26.242Z,12.02
2017-11-29T05:57:55.416Z,12.27
2017-11-29T06:00:24.701Z,11.93
2017-11-29T06:02:54.696Z,14.30
2017-11-29T06:05:23.943Z,13.02
2017-11-29T06:07:53.110Z,12.32
2017-11-29T06:10:23.090Z,13.77
2017-11-29T06:12:52.369Z,12.65
2017-11-29T06:15:23.110Z,12.40
2017-11-29T06:17:52.252Z,13.80
2017-11-29T06:20:22.243Z,16.45
2017-11-29T06:22:51.439Z,16.05
2017-11-29T06:25:21.396Z,18.52
2017-11-29T06:27:51.671Z,22.17
2017-11-29T06:30:23.642Z,20.10
2017-11-29T06:32:53.357Z,20.90
2017-11-29T06:35:22.536Z,22.30
2017-11-29T06:37:51.512Z,21.27
2017-11-29T06:40:28.325Z,22.93
2017-11-29T06:42:58.243Z,24.43
2017-11-29T06:45:28.235Z,25.58
2017-11-29T06:47:57.388Z,25.87
2017-11-29T06:50:28.061Z,21.45
2017-11-29T06:52:58.863Z,21.43
2017-11-29T06:55:32.299Z,26.03
2017-11-29T06:58:02.131Z,32.72
2017-11-29T07:00:32.144Z,37.53
2017-11-29T07:03:01.342Z,32.60
2017-11-29T07:05:31.864Z,21.07
2017-11-29T07:08:00.875Z,17.77
2017-11-29T07:10:30.144Z,17.27
2017-11-29T07:13:02.458Z,13.83
2017-11-29T07:15:36.837Z,13.77
2017-11-29T07:18:08.058Z,13.13
2017-11-29T07:20:38.233Z,12.10
2017-11-29T07:23:07.405Z,10.73
2017-11-29T07:25:36.730Z,9.50
2017-11-29T07:28:06.032Z,10.73
2017-11-29T07:30:35.100Z,10.13
2017-11-29T07:33:05.731Z,11.60
2017-11-29T07:35:34.695Z,10.17
2017-11-29T07:38:03.816Z,9.83
2017-11-29T07:40:33.741Z,11.30
2017-11-29T07:43:02.992Z,10.20
2017-11-29T07:45:31.869Z,11.37
2017-11-29T07:48:00.904Z,11.60
2017-11-29T07:53:04.905Z,11.97
2017-11-29T07:55:37.080Z,11.57
2017-11-29T07:58:07.064Z,12.30
2017-11-29T08:00:35.988Z,11.13
2017-11-29T08:03:07.154Z,11.83
2017-11-29T08:05:36.932Z,12.00
2017-11-29T08:08:05.934Z,11.40
2017-11-29T08:10:35.697Z,12.53
2017-11-29T08:13:06.476Z,11.20
2017-11-29T08:15:35.521Z,13.30
2017-11-29T08:18:04.570Z,12.23
2017-11-29T08:20:37.661Z,12.43
2017-11-29T08:23:12.583Z,14.90
2017-11-29T08:28:16.490Z,10.97
2017-11-29T08:30:45.616Z,11.33
2017-11-29T08:33:16.838Z,10.90
2017-11-29T08:35:48.317Z,12.10
2017-11-29T08:38:17.529Z,10.33
2017-11-29T08:40:46.987Z,11.33
2017-11-29T08:43:16.212Z,10.97
2017-11-29T08:45:45.472Z,12.03
2017-11-29T08:48:14.870Z,11.73
2017-11-29T08:50:44.599Z,13.00
2017-11-29T08:53:13.963Z,13.73
2017-11-29T08:55:49.484Z,14.20
2017-11-29T08:58:19.766Z,11.53
2017-11-29T09:00:48.959Z,12.63
2017-11-29T09:03:17.996Z,12.10
2017-11-29T09:08:21.474Z,7.67
2017-11-29T09:10:50.610Z,8.93
2017-11-29T09:13:19.814Z,8.30
2017-11-29T09:15:49.439Z,8.90
2017-11-29T09:18:19.840Z,8.43
2017-11-29T09:20:49.674Z,9.73
2017-11-29T09:23:18.963Z,11.10
2017-11-29T09:25:48.994Z,11.27
2017-11-29T09:28:19.772Z,12.30
2017-11-29T09:30:48.967Z,10.30
2017-11-29T09:33:18.265Z,9.80
2017-11-29T09:35:47.649Z,11.20
2017-11-29T09:38:18.400Z,9.03
2017-11-29T09:40:47.898Z,9.60
2017-11-29T09:43:18.076Z,10.67
2017-11-29T09:45:47.565Z,9.43
2017-11-29T09:48:16.885Z,9.43
2017-11-29T09:50:47.610Z,9.80
2017-11-29T09:53:17.891Z,8.67
2017-11-29T09:55:50.954Z,6.80
2017-11-29T09:58:20.335Z,5.17
2017-11-29T10:00:50.502Z,5.00
2017-11-29T10:03:19.792Z,5.70
2017-11-29T10:05:48.889Z,5.77
2017-11-29T10:08:18.260Z,5.97
2017-11-29T10:10:50.148Z,5.47
2017-11-29T10:13:19.928Z,5.97
2017-11-29T10:15:49.162Z,5.30
2017-11-29T10:18:18.991Z,5.50
2017-11-29T10:20:48.997Z,5.80
2017-11-29T10:23:18.158Z,6.83
2017-11-29T10:25:48.768Z,6.17
2017-11-29T10:28:18.645Z,5.70
2017-11-29T10:30:49.575Z,6.00
2017-11-29T10:33:18.781Z,6.07
2017-11-29T10:35:48.195Z,6.87
2017-11-29T10:38:17.991Z,6.63
2017-11-29T10:40:48.891Z,6.00
2017-11-29T10:43:21.158Z,7.30
2017-11-29T10:45:50.472Z,6.63
2017-11-29T10:48:20.360Z,6.40
2017-11-29T10:50:49.680Z,6.03
2017-11-29T10:53:19.130Z,6.20
2017-11-29T10:55:50.448Z,5.97
2017-11-29T10:58:19.931Z,5.70
2017-11-29T11:00:49.086Z,7.40
2017-11-29T11:03:20.004Z,6.50
2017-11-29T11:05:50.039Z,5.90
2017-11-29T11:08:19.317Z,5.60
2017-11-29T11:10:48.633Z,7.77
2017-11-29T11:13:18.155Z,7.37
2017-11-29T11:15:47.544Z,5.43
2017-11-29T11:18:18.660Z,7.57
2017-11-29T11:20:48.660Z,5.97
2017-11-29T11:23:18.704Z,6.23
2017-11-29T11:25:48.840Z,7.07
2017-11-29T11:28:17.995Z,6.30
2017-11-29T11:30:48.780Z,7.07
2017-11-29T11:33:20.455Z,6.37
2017-11-29T11:35:49.851Z,5.70
2017-11-29T11:38:18.984Z,5.40
2017-11-29T11:40:49.843Z,6.97
2017-11-29T11:43:18.834Z,7.13
2017-11-29T11:45:48.114Z,7.03
2017-11-29T11:48:19.975Z,6.90
2017-11-29T11:50:49.895Z,7.20
2017-11-29T11:53:19.573Z,6.40
2017-11-29T11:55:48.772Z,7.40
2017-11-29T11:58:18.818Z,7.03
2017-11-29T12:00:48.784Z,7.23
2017-11-29T12:03:18.142Z,6.93
2017-11-29T12:05:48.431Z,6.00
2017-11-29T12:08:17.768Z,6.07
2017-11-29T12:10:46.964Z,7.93
2017-11-29T12:13:16.431Z,6.20
2017-11-29T12:15:45.567Z,6.43
2017-11-29T12:18:16.356Z,6.33
2017-11-29T12:20:49.389Z,6.47
2017-11-29T12:23:20.735Z,7.20
2017-11-29T12:25:51.573Z,6.37
2017-11-29T12:28:20.753Z,6.33
2017-11-29T12:30:50.114Z,5.90
2017-11-29T12:33:19.312Z,6.20
2017-11-29T12:35:48.724Z,6.40
2017-11-29T12:38:18.082Z,6.33
2017-11-29T12:40:47.211Z,5.90
2017-11-29T12:43:16.488Z,6.37
2017-11-29T12:45:49.666Z,6.83
2017-11-29T12:48:40.333Z,7.17
2017-11-29T12:53:55.915Z,6.90
2017-11-29T12:56:27.776Z,6.50
2017-11-29T12:58:57.229Z,7.00
2017-11-29T13:01:26.872Z,5.80
2017-11-29T13:03:56.284Z,7.50
2017-11-29T13:06:25.392Z,6.10
2017-11-29T13:08:55.476Z,7.17
2017-11-29T13:11:25.682Z,7.60
2017-11-29T13:14:01.124Z,7.10
2017-11-29T13:16:30.324Z,7.63
2017-11-29T13:18:59.362Z,7.50
2017-11-29T13:21:31.574Z,7.37
2017-11-29T13:24:01.149Z,8.67
2017-11-29T13:26:31.323Z,9.17
2017-11-29T13:29:03.087Z,8.90
2017-11-29T13:31:32.312Z,8.20
2017-11-29T13:34:02.306Z,8.80
2017-11-29T13:36:31.617Z,8.70
2017-11-29T13:39:00.895Z,9.63
2017-11-29T13:41:30.498Z,6.93
2017-11-29T13:43:59.703Z,6.50
2017-11-29T13:46:29.655Z,7.10
2017-11-29T13:48:58.812Z,7.40
2017-11-29T13:51:28.254Z,6.50
2017-11-29T13:53:57.516Z,7.40
2017-11-29T13:56:27.786Z,8.33
2017-11-29T13:58:57.956Z,9.23
2017-11-29T14:01:28.024Z,7.47
2017-11-29T14:03:57.239Z,7.00
2017-11-29T14:06:28.245Z,11.30
2017-11-29T14:08:57.534Z,7.20
2017-11-29T14:11:26.526Z,8.93
2017-11-29T14:13:55.658Z,9.37
2017-11-29T14:16:25.607Z,9.40
2017-11-29T14:18:55.607Z,8.77
2017-11-29T14:21:26.194Z,8.83
2017-11-29T14:23:56.308Z,9.50
2017-11-29T14:26:25.384Z,11.90
2017-11-29T14:28:54.506Z,11.10
2017-11-29T14:31:23.427Z,8.17
2017-11-29T14:33:52.449Z,16.03
2017-11-29T14:36:21.766Z,15.70
2017-11-29T14:38:50.872Z,10.57
2017-11-29T14:41:21.787Z,10.73
2017-11-29T14:43:51.812Z,9.07
2017-11-29T14:46:20.685Z,10.03
2017-11-29T14:48:49.719Z,9.90
2017-11-29T14:51:18.819Z,8.80
2017-11-29T14:53:49.641Z,9.73
2017-11-29T14:56:19.610Z,11.00
2017-11-29T14:58:49.700Z,13.20
2017-11-29T15:01:19.609Z,13.10
2017-11-29T15:03:50.648Z,15.77
2017-11-29T15:06:20.667Z,16.20
2017-11-29T15:08:50.652Z,14.03
2017-11-29T15:11:23.677Z,13.10
2017-11-29T15:13:52.973Z,16.60
2017-11-29T15:16:22.823Z,13.43
2017-11-29T15:18:53.713Z,12.97
2017-11-29T15:21:22.612Z,15.90
2017-11-29T15:23:51.711Z,13.37
2017-11-29T15:26:20.883Z,13.93
2017-11-29T15:28:50.884Z,15.33
2017-11-29T15:31:22.626Z,16.40
2017-11-29T15:33:51.676Z,15.57
2017-11-29T15:36:20.690Z,14.23
2017-11-29T15:38:53.655Z,16.40
2017-11-29T15:41:22.757Z,16.57
2017-11-29T15:43:52.044Z,17.00
2017-11-29T15:46:24.366Z,17.40
2017-11-29T15:48:53.522Z,23.80
2017-11-29T15:51:22.721Z,29.40
2017-11-29T15:53:51.920Z,24.10
2017-11-29T15:56:23.878Z,20.13
2017-11-29T15:58:53.864Z,20.63
2017-11-29T16:01:22.896Z,19.30
2017-11-29T16:03:51.990Z,21.27
2017-11-29T16:06:26.719Z,15.30
2017-11-29T16:08:55.712Z,14.53
2017-11-29T16:11:25.714Z,14.43
2017-11-29T16:13:56.669Z,17.30
2017-11-29T16:16:26.632Z,14.00
2017-11-29T16:18:56.658Z,18.70
2017-11-29T16:24:00.836Z,17.30
2017-11-29T16:26:30.220Z,16.53
2017-11-29T16:28:59.774Z,16.57
2017-11-29T16:31:29.411Z,17.23
2017-11-29T16:33:58.713Z,22.50
2017-11-29T16:36:28.247Z,24.87
2017-11-29T16:38:59.972Z,26.17
2017-11-29T16:41:30.507Z,22.97
2017-11-29T16:44:00.246Z,25.73
2017-11-29T16:46:30.041Z,19.53
2017-11-29T16:48:59.857Z,20.43
2017-11-29T16:51:29.492Z,21.90
2017-11-29T16:53:58.970Z,23.63
2017-11-29T16:56:28.891Z,22.33
2017-11-29T16:58:58.522Z,21.00
2017-11-29T17:01:27.720Z,21.97
2017-11-29T17:03:57.941Z,22.90
2017-11-29T17:06:27.204Z,21.30
2017-11-29T17:08:57.367Z,18.50
2017-11-29T17:11:29.802Z,17.67
2017-11-29T17:14:00.077Z,16.27
2017-11-29T17:16:29.059Z,18.50
2017-11-29T17:18:59.269Z,15.80
2017-11-29T17:21:28.381Z,15.10
2017-11-29T17:23:57.444Z,14.00
2017-11-29T17:26:26.945Z,13.47
2017-11-29T17:28:56.125Z,13.73
2017-11-29T17:31:25.952Z,16.73
2017-11-29T17:33:57.141Z,29.50
2017-11-29T17:36:26.259Z,25.77
2017-11-29T17:38:55.240Z,19.17
2017-11-29T17:41:25.331Z,18.33
2017-11-29T17:43:54.436Z,18.07
2017-11-29T17:46:23.471Z,20.03
2017-11-29T17:48:55.876Z,23.60
2017-11-29T17:51:25.244Z,23.60
2017-11-29T17:53:54.505Z,23.30
2017-11-29T17:56:25.667Z,28.77
2017-11-29T17:58:54.989Z,26.73
2017-11-29T18:01:24.960Z,25.73
2017-11-29T18:03:54.109Z,24.13
2017-11-29T18:06:23.265Z,23.33
2017-11-29T18:08:53.319Z,26.87
2017-11-29T18:11:23.365Z,27.47
2017-11-29T18:13:52.401Z,23.40
2017-11-29T18:16:21.502Z,24.70
2017-11-29T18:18:50.703Z,24.83
2017-11-29T18:21:19.891Z,24.70
2017-11-29T18:23:49.317Z,24.27
2017-11-29T18:26:19.265Z,21.70
2017-11-29T18:28:48.559Z,18.20
2017-11-29T18:31:18.458Z,20.57
2017-11-29T18:33:50.613Z,19.07
2017-11-29T18:36:20.647Z,20.43
2017-11-29T18:38:50.937Z,17.17
2017-11-29T18:41:22.107Z,19.03
2017-11-29T18:43:51.427Z,20.37
2017-11-29T18:46:20.684Z,19.73
2017-11-29T18:48:50.663Z,18.50
2017-11-29T18:51:19.789Z,17.07
2017-11-29T18:53:48.783Z,17.70
2017-11-29T18:56:18.923Z,17.60
2017-11-29T18:58:47.940Z,16.30
2017-11-29T19:01:20.790Z,16.80
2017-11-29T19:03:51.019Z,16.80
2017-11-29T19:06:20.257Z,19.00
2017-11-29T19:08:50.427Z,22.77
2017-11-29T19:11:20.454Z,22.87
2017-11-29T19:13:49.696Z,22.00
2017-11-29T19:16:20.813Z,22.07
2017-11-29T19:18:49.823Z,20.40
2017-11-29T19:21:19.214Z,20.67
2017-11-29T19:24:05.177Z,19.30
2017-11-29T19:26:38.912Z,19.23
2017-11-29T19:29:08.293Z,16.37
2017-11-29T19:31:37.377Z,15.10
2017-11-29T19:34:07.327Z,15.77
2017-11-29T19:36:36.565Z,17.07
2017-11-29T19:39:06.772Z,21.17
2017-11-29T19:41:36.323Z,20.43
2017-11-29T19:44:05.563Z,23.17
2017-11-29T19:46:34.761Z,22.70
2017-11-29T19:49:04.661Z,24.50
2017-11-29T19:51:34.680Z,25.70
2017-11-29T19:54:03.699Z,26.37
2017-11-29T19:56:32.834Z,25.30
2017-11-29T19:59:02.826Z,24.57
2017-11-29T20:01:32.590Z,29.60
2017-11-29T20:04:01.810Z,24.67
2017-11-29T20:06:30.859Z,25.65
2017-11-29T20:09:01.928Z,21.93
2017-11-29T20:14:06.755Z,27.77
2017-11-29T20:16:37.290Z,24.83
2017-11-29T20:19:08.159Z,26.07
2017-11-29T20:21:38.290Z,22.63
2017-11-29T20:24:08.564Z,25.60
2017-11-29T20:29:14.097Z,23.87
2017-11-29T20:31:43.369Z,26.30
2017-11-29T20:34:12.543Z,26.00
2017-11-29T20:36:42.722Z,25.73
2017-11-29T20:39:12.090Z,26.43
2017-11-29T20:41:41.517Z,22.30
2017-11-29T20:44:11.473Z,24.43
2017-11-29T20:46:41.482Z,22.50
2017-11-29T20:49:10.874Z,22.90
2017-11-29T20:51:41.090Z,20.87
2017-11-29T20:54:10.751Z,20.80
2017-11-29T20:56:40.125Z,20.03
2017-11-29T20:59:10.744Z,19.20
2017-11-29T21:01:45.170Z,19.60
2017-11-29T21:04:17.694Z,19.93
2017-11-29T21:06:47.592Z,19.57
2017-11-29T21:09:16.913Z,24.17
2017-11-29T21:11:49.749Z,23.83
2017-11-29T21:14:20.125Z,28.47
2017-11-29T21:16:50.924Z,26.50
2017-11-29T21:19:21.995Z,26.37
2017-11-29T21:21:51.856Z,26.13
2017-11-29T21:24:21.425Z,23.40
2017-11-29T21:26:51.465Z,22.25
2017-11-29T21:29:22.226Z,25.07
2017-11-29T21:31:51.941Z,23.10
2017-11-29T21:34:21.222Z,24.73
2017-11-29T21:36:51.369Z,25.00
2017-11-29T21:39:21.666Z,22.30
2017-11-29T21:41:51.155Z,21.00
2017-11-29T21:44:21.723Z,19.90
2017-11-29T21:46:51.213Z,21.00
2017-11-29T21:49:20.695Z,20.67
2017-11-29T21:51:50.260Z,19.43
2017-11-29T21:54:19.459Z,19.90
2017-11-29T21:56:48.766Z,18.65
2017-11-29T21:59:18.337Z,19.67
2017-11-29T22:01:48.352Z,20.30
2017-11-29T22:04:17.516Z,18.27
2017-11-29T22:06:48.964Z,21.10
2017-11-29T22:09:18.060Z,21.17
2017-11-29T22:11:48.023Z,19.20
2017-11-29T22:14:17.230Z,21.10
2017-11-29T22:16:46.596Z,20.43
2017-11-29T22:19:16.517Z,17.20
2017-11-29T22:21:45.905Z,28.50
2017-11-29T22:24:15.293Z,34.50
2017-11-29T22:26:44.649Z,33.10
2017-11-29T22:29:13.875Z,34.80
2017-11-29T22:31:42.839Z,31.55
2017-11-29T22:34:11.779Z,33.63
2017-11-29T22:36:40.870Z,27.40
2017-11-29T22:39:10.006Z,21.45
2017-11-29T22:41:40.751Z,25.83
2017-11-29T22:44:11.142Z,19.52
2017-11-29T22:46:40.142Z,23.15
2017-11-29T22:49:12.505Z,26.52
2017-11-29T22:51:41.648Z,28.43
2017-11-29T22:54:14.635Z,26.30
2017-11-29T22:56:44.647Z,26.80
2017-11-29T22:59:13.745Z,28.65
2017-11-29T23:04:17.151Z,31.00
2017-11-29T23:06:47.688Z,37.07
2017-11-29T23:09:16.889Z,37.78
2017-11-29T23:11:46.158Z,38.90
2017-11-29T23:14:16.103Z,26.60
2017-11-29T23:16:46.409Z,19.27
2017-11-29T23:19:15.614Z,15.63
2017-11-29T23:21:44.627Z,16.42
2017-11-29T23:24:17.126Z,17.35
2017-11-29T23:26:46.191Z,17.07
2017-11-29T23:29:16.250Z,16.63
2017-11-29T23:31:45.385Z,14.20
2017-11-29T23:34:14.510Z,13.77
2017-11-29T23:36:43.685Z,14.90
2017-11-29T23:39:15.239Z,13.57
2017-11-29T23:41:44.294Z,14.50
2017-11-29T23:44:14.266Z,13.60
2017-11-29T23:46:43.464Z,13.80
2017-11-29T23:49:13.429Z,13.90
2017-11-29T23:51:43.826Z,11.30
2017-11-29T23:54:13.168Z,12.97
2017-11-29T23:56:43.943Z,11.70
2017-11-29T23:59:12.984Z,11.60
